sensor_id;sensor_type;location;lat;lon;timestamp;pressure;altitude;pressure_sealevel;temperature;humidity
26775;BME280;14362;51.902;7.626;2023-04-27T00:03:21;101414.81;;;5.49;100.00
26775;BME280;14362;51.902;7.626;2023-04-27T00:07:22;101407.94;;;5.37;100.00
26775;BME280;14362;51.902;7.626;2023-04-27T00:11:25;101410.94;;;5.25;100.00
26775;BME280;14362;51.902;7.626;2023-04-27T00:15:26;101407.31;;;5.15;100.00
26775;BME280;14362;51.902;7.626;2023-04-27T00:19:29;101410.34;;;5.08;100.00
26775;BME280;14362;51.902;7.626;2023-04-27T00:23:31;101405.06;;;5.02;100.00
26775;BME280;14362;51.902;7.626;2023-04-27T00:27:32;101399.28;;;5.03;100.00
26775;BME280;14362;51.902;7.626;2023-04-27T00:31:33;101410.28;;;4.94;100.00
26775;BME280;14362;51.902;7.626;2023-04-27T00:35:36;101419.09;;;4.86;100.00
26775;BME280;14362;51.902;7.626;2023-04-27T00:39:38;101413.53;;;4.76;100.00
26775;BME280;14362;51.902;7.626;2023-04-27T00:43:43;101424.53;;;4.66;100.00
26775;BME280;14362;51.902;7.626;2023-04-27T00:47:45;101426.19;;;4.67;100.00
26775;BME280;14362;51.902;7.626;2023-04-27T00:51:47;101427.22;;;4.51;100.00
26775;BME280;14362;51.902;7.626;2023-04-27T00:55:49;101432.44;;;4.47;100.00
26775;BME280;14362;51.902;7.626;2023-04-27T00:59:50;101428.31;;;4.50;100.00
26775;BME280;14362;51.902;7.626;2023-04-27T01:03:52;101438.47;;;4.44;100.00
26775;BME280;14362;51.902;7.626;2023-04-27T01:07:55;101446.44;;;4.31;100.00
26775;BME280;14362;51.902;7.626;2023-04-27T01:11:56;101453.00;;;4.25;100.00
26775;BME280;14362;51.902;7.626;2023-04-27T01:15:58;101454.94;;;4.24;100.00
26775;BME280;14362;51.902;7.626;2023-04-27T01:19:59;101464.28;;;4.18;100.00
26775;BME280;14362;51.902;7.626;2023-04-27T01:24:04;101460.03;;;4.06;100.00
26775;BME280;14362;51.902;7.626;2023-04-27T01:28:06;101459.69;;;3.98;100.00
26775;BME280;14362;51.902;7.626;2023-04-27T01:32:07;101466.31;;;3.97;100.00
26775;BME280;14362;51.902;7.626;2023-04-27T01:36:09;101468.13;;;3.86;100.00
26775;BME280;14362;51.902;7.626;2023-04-27T01:40:12;101471.75;;;3.87;100.00
26775;BME280;14362;51.902;7.626;2023-04-27T01:44:14;101459.00;;;3.81;100.00
26775;BME280;14362;51.902;7.626;2023-04-27T01:48:15;101459.25;;;3.79;100.00
26775;BME280;14362;51.902;7.626;2023-04-27T01:52:17;101468.59;;;3.78;100.00
26775;BME280;14362;51.902;7.626;2023-04-27T01:56:20;101468.25;;;3.70;100.00
26775;BME280;14362;51.902;7.626;2023-04-27T02:00:21;101476.16;;;3.61;100.00
26775;BME280;14362;51.902;7.626;2023-04-27T02:04:23;101482.69;;;3.50;100.00
26775;BME280;14362;51.902;7.626;2023-04-27T02:08:24;101481.84;;;3.50;100.00
26775;BME280;14362;51.902;7.626;2023-04-27T02:12:27;101480.44;;;3.47;100.00
26775;BME280;14362;51.902;7.626;2023-04-27T02:16:29;101485.31;;;3.40;100.00
26775;BME280;14362;51.902;7.626;2023-04-27T02:20:31;101485.59;;;3.39;100.00
26775;BME280;14362;51.902;7.626;2023-04-27T02:24:34;101493.75;;;3.29;100.00
26775;BME280;14362;51.902;7.626;2023-04-27T02:28:37;101485.44;;;3.24;100.00
26775;BME280;14362;51.902;7.626;2023-04-27T02:32:38;101492.22;;;3.16;100.00
26775;BME280;14362;51.902;7.626;2023-04-27T02:36:40;101488.91;;;3.14;100.00
26775;BME280;14362;51.902;7.626;2023-04-27T02:40:41;101493.75;;;3.07;100.00
26775;BME280;14362;51.902;7.626;2023-04-27T02:44:44;101482.44;;;3.04;100.00
26775;BME280;14362;51.902;7.626;2023-04-27T02:48:46;101479.09;;;3.02;100.00
26775;BME280;14362;51.902;7.626;2023-04-27T02:52:47;101471.63;;;2.98;100.00
26775;BME280;14362;51.902;7.626;2023-04-27T02:56:48;101470.97;;;2.91;100.00
26775;BME280;14362;51.902;7.626;2023-04-27T03:00:54;101463.22;;;2.88;100.00
26775;BME280;14362;51.902;7.626;2023-04-27T03:04:55;101460.97;;;2.85;100.00
26775;BME280;14362;51.902;7.626;2023-04-27T03:08:58;101466.06;;;2.71;100.00
26775;BME280;14362;51.902;7.626;2023-04-27T03:12:59;101464.19;;;2.77;100.00
26775;BME280;14362;51.902;7.626;2023-04-27T03:17:02;101465.28;;;2.76;100.00
26775;BME280;14362;51.902;7.626;2023-04-27T03:21:05;101466.06;;;2.71;100.00
26775;BME280;14362;51.902;7.626;2023-04-27T03:25:07;101470.47;;;2.72;100.00
26775;BME280;14362;51.902;7.626;2023-04-27T03:29:09;101469.75;;;2.60;100.00
26775;BME280;14362;51.902;7.626;2023-04-27T03:33:11;101461.25;;;2.62;100.00
26775;BME280;14362;51.902;7.626;2023-04-27T03:37:13;101463.34;;;2.55;100.00
26775;BME280;14362;51.902;7.626;2023-04-27T03:41:14;101462.53;;;2.54;100.00
26775;BME280;14362;51.902;7.626;2023-04-27T03:45:16;101456.75;;;2.56;100.00
26775;BME280;14362;51.902;7.626;2023-04-27T03:49:19;101462.28;;;2.39;100.00
26775;BME280;14362;51.902;7.626;2023-04-27T03:53:21;101461.47;;;2.39;100.00
26775;BME280;14362;51.902;7.626;2023-04-27T03:57:22;101476.91;;;2.40;100.00
26775;BME280;14362;51.902;7.626;2023-04-27T04:01:23;101489.47;;;2.36;100.00
26775;BME280;14362;51.902;7.626;2023-04-27T04:05:26;101488.81;;;2.29;100.00
26775;BME280;14362;51.902;7.626;2023-04-27T04:09:29;101486.81;;;2.24;100.00
26775;BME280;14362;51.902;7.626;2023-04-27T04:13:32;101485.75;;;2.25;100.00
26775;BME280;14362;51.902;7.626;2023-04-27T04:17:35;101498.16;;;2.28;100.00
26775;BME280;14362;51.902;7.626;2023-04-27T04:21:37;101489.91;;;2.28;100.00
26775;BME280;14362;51.902;7.626;2023-04-27T04:25:39;101497.25;;;2.22;100.00
26775;BME280;14362;51.902;7.626;2023-04-27T04:29:40;101495.75;;;2.15;100.00
26775;BME280;14362;51.902;7.626;2023-04-27T04:33:42;101498.91;;;2.23;100.00
26775;BME280;14362;51.902;7.626;2023-04-27T04:37:44;101497.91;;;2.29;100.00
26775;BME280;14362;51.902;7.626;2023-04-27T04:41:46;101507.16;;;2.23;100.00
26775;BME280;14362;51.902;7.626;2023-04-27T04:45:48;101507.84;;;2.30;100.00
26775;BME280;14362;51.902;7.626;2023-04-27T04:49:50;101511.22;;;2.37;100.00
26775;BME280;14362;51.902;7.626;2023-04-27T04:53:52;101509.91;;;2.40;100.00
26775;BME280;14362;51.902;7.626;2023-04-27T04:57:54;101516.56;;;2.44;100.00
26775;BME280;14362;51.902;7.626;2023-04-27T05:01:55;101506.13;;;2.46;100.00
26775;BME280;14362;51.902;7.626;2023-04-27T05:05:56;101515.13;;;2.58;100.00
26775;BME280;14362;51.902;7.626;2023-04-27T05:09:59;101516.59;;;2.65;100.00
26775;BME280;14362;51.902;7.626;2023-04-27T05:14:01;101512.31;;;2.74;100.00
26775;BME280;14362;51.902;7.626;2023-04-27T05:18:02;101510.03;;;2.88;100.00
26775;BME280;14362;51.902;7.626;2023-04-27T05:22:04;101523.59;;;2.94;100.00
26775;BME280;14362;51.902;7.626;2023-04-27T05:26:11;101527.66;;;3.08;100.00
26775;BME280;14362;51.902;7.626;2023-04-27T05:30:13;101526.38;;;3.15;100.00
26775;BME280;14362;51.902;7.626;2023-04-27T05:34:14;101533.22;;;3.34;100.00
26775;BME280;14362;51.902;7.626;2023-04-27T05:38:16;101536.06;;;3.44;100.00
26775;BME280;14362;51.902;7.626;2023-04-27T05:42:19;101530.84;;;3.69;100.00
26775;BME280;14362;51.902;7.626;2023-04-27T05:46:20;101540.28;;;3.78;100.00
26775;BME280;14362;51.902;7.626;2023-04-27T05:50:22;101536.97;;;4.03;100.00
26775;BME280;14362;51.902;7.626;2023-04-27T05:54:23;101548.53;;;4.31;100.00
26775;BME280;14362;51.902;7.626;2023-04-27T05:58:27;101555.78;;;4.83;100.00
26775;BME280;14362;51.902;7.626;2023-04-27T06:02:29;101552.38;;;5.07;100.00
26775;BME280;14362;51.902;7.626;2023-04-27T06:06:31;101567.91;;;5.23;100.00
26775;BME280;14362;51.902;7.626;2023-04-27T06:10:33;101562.72;;;5.37;100.00
26775;BME280;14362;51.902;7.626;2023-04-27T06:14:36;101550.59;;;5.58;100.00
26775;BME280;14362;51.902;7.626;2023-04-27T06:18:37;101544.91;;;5.79;100.00
26775;BME280;14362;51.902;7.626;2023-04-27T06:22:39;101556.00;;;6.04;100.00
26775;BME280;14362;51.902;7.626;2023-04-27T06:26:40;101564.34;;;6.34;100.00
26775;BME280;14362;51.902;7.626;2023-04-27T06:30:43;101564.88;;;6.61;100.00
26775;BME280;14362;51.902;7.626;2023-04-27T06:34:44;101560.38;;;7.05;100.00
26775;BME280;14362;51.902;7.626;2023-04-27T06:38:45;101564.41;;;7.42;100.00
26775;BME280;14362;51.902;7.626;2023-04-27T06:42:47;101554.81;;;7.73;100.00
26775;BME280;14362;51.902;7.626;2023-04-27T06:46:49;101550.94;;;8.12;100.00
26775;BME280;14362;51.902;7.626;2023-04-27T06:50:51;101555.53;;;8.36;100.00
26775;BME280;14362;51.902;7.626;2023-04-27T06:54:52;101553.72;;;8.55;100.00
26775;BME280;14362;51.902;7.626;2023-04-27T06:58:54;101557.47;;;8.69;100.00
26775;BME280;14362;51.902;7.626;2023-04-27T07:02:56;101541.19;;;8.86;100.00
26775;BME280;14362;51.902;7.626;2023-04-27T07:06:58;101542.97;;;9.01;100.00
26775;BME280;14362;51.902;7.626;2023-04-27T07:11:00;101545.72;;;9.06;100.00
26775;BME280;14362;51.902;7.626;2023-04-27T07:15:01;101541.63;;;9.21;100.00
26775;BME280;14362;51.902;7.626;2023-04-27T07:19:04;101539.56;;;9.32;100.00
26775;BME280;14362;51.902;7.626;2023-04-27T07:23:06;101537.38;;;9.47;97.91
26775;BME280;14362;51.902;7.626;2023-04-27T07:27:07;101523.19;;;9.49;99.20
26775;BME280;14362;51.902;7.626;2023-04-27T07:31:09;101521.69;;;9.56;100.00
26775;BME280;14362;51.902;7.626;2023-04-27T07:35:12;101526.22;;;9.29;100.00
26775;BME280;14362;51.902;7.626;2023-04-27T07:39:13;101530.31;;;9.13;100.00
26775;BME280;14362;51.902;7.626;2023-04-27T07:43:15;101519.47;;;9.12;100.00
26775;BME280;14362;51.902;7.626;2023-04-27T07:47:17;101522.44;;;9.20;95.17
26775;BME280;14362;51.902;7.626;2023-04-27T07:51:20;101525.22;;;9.20;100.00
26775;BME280;14362;51.902;7.626;2023-04-27T07:55:22;101521.66;;;9.38;90.56
26775;BME280;14362;51.902;7.626;2023-04-27T07:59:24;101519.66;;;9.62;98.65
26775;BME280;14362;51.902;7.626;2023-04-27T08:03:28;101521.63;;;9.61;94.92
26775;BME280;14362;51.902;7.626;2023-04-27T08:07:32;101531.66;;;9.81;82.12
26775;BME280;14362;51.902;7.626;2023-04-27T08:11:33;101537.28;;;9.76;74.49
26775;BME280;14362;51.902;7.626;2023-04-27T08:15:35;101533.31;;;9.82;63.69
26775;BME280;14362;51.902;7.626;2023-04-27T08:19:36;101533.31;;;9.82;60.01
26775;BME280;14362;51.902;7.626;2023-04-27T08:23:39;101539.09;;;9.85;76.94
26775;BME280;14362;51.902;7.626;2023-04-27T08:27:41;101535.53;;;10.03;78.66
26775;BME280;14362;51.902;7.626;2023-04-27T08:31:42;101535.06;;;10.15;71.89
26775;BME280;14362;51.902;7.626;2023-04-27T08:35:44;101538.84;;;10.05;75.55
26775;BME280;14362;51.902;7.626;2023-04-27T08:39:47;101539.28;;;10.12;81.63
26775;BME280;14362;51.902;7.626;2023-04-27T08:43:49;101544.56;;;10.32;69.99
26775;BME280;14362;51.902;7.626;2023-04-27T08:47:52;101541.63;;;10.23;74.85
26775;BME280;14362;51.902;7.626;2023-04-27T08:51:54;101532.16;;;10.38;70.64
26775;BME280;14362;51.902;7.626;2023-04-27T08:55:57;101525.72;;;10.24;66.67
26775;BME280;14362;51.902;7.626;2023-04-27T08:59:59;101522.69;;;10.39;63.90
26775;BME280;14362;51.902;7.626;2023-04-27T09:04:03;101520.00;;;10.34;66.64
26775;BME280;14362;51.902;7.626;2023-04-27T09:08:06;101523.91;;;10.33;69.12
26775;BME280;14362;51.902;7.626;2023-04-27T09:12:15;101521.88;;;10.38;62.29
26775;BME280;14362;51.902;7.626;2023-04-27T09:16:22;101531.16;;;10.47;59.36
26775;BME280;14362;51.902;7.626;2023-04-27T09:20:24;101520.22;;;10.37;60.34
26775;BME280;14362;51.902;7.626;2023-04-27T09:24:26;101517.94;;;10.39;61.12
26775;BME280;14362;51.902;7.626;2023-04-27T09:28:29;101517.22;;;10.47;55.31
26775;BME280;14362;51.902;7.626;2023-04-27T09:32:31;101518.94;;;10.62;57.60
26775;BME280;14362;51.902;7.626;2023-04-27T09:36:33;101512.59;;;10.75;57.63
26775;BME280;14362;51.902;7.626;2023-04-27T09:40:34;101497.75;;;10.61;59.54
26775;BME280;14362;51.902;7.626;2023-04-27T09:44:38;101487.88;;;10.68;58.72
26775;BME280;14362;51.902;7.626;2023-04-27T09:48:40;101484.19;;;10.73;58.61
26775;BME280;14362;51.902;7.626;2023-04-27T09:52:42;101485.00;;;10.73;56.17
26775;BME280;14362;51.902;7.626;2023-04-27T09:56:51;101487.81;;;10.87;53.05
26775;BME280;14362;51.902;7.626;2023-04-27T10:01:03;101479.88;;;10.94;52.57
26775;BME280;14362;51.902;7.626;2023-04-27T10:05:20;101478.00;;;11.03;49.18
26775;BME280;14362;51.902;7.626;2023-04-27T10:09:26;101483.38;;;10.86;51.60
26775;BME280;14362;51.902;7.626;2023-04-27T10:13:30;101482.13;;;10.92;49.45
26775;BME280;14362;51.902;7.626;2023-04-27T10:17:34;101476.25;;;11.07;52.82
26775;BME280;14362;51.902;7.626;2023-04-27T10:21:36;101473.25;;;11.30;46.73
26775;BME280;14362;51.902;7.626;2023-04-27T10:25:38;101476.34;;;11.28;46.08
26775;BME280;14362;51.902;7.626;2023-04-27T10:29:41;101473.47;;;11.20;48.47
26775;BME280;14362;51.902;7.626;2023-04-27T10:33:44;101467.56;;;11.21;49.10
26775;BME280;14362;51.902;7.626;2023-04-27T10:37:49;101461.56;;;11.15;47.22
26775;BME280;14362;51.902;7.626;2023-04-27T10:41:53;101456.59;;;11.38;50.02
26775;BME280;14362;51.902;7.626;2023-04-27T10:46:06;101451.50;;;11.67;49.74
26775;BME280;14362;51.902;7.626;2023-04-27T10:50:10;101452.84;;;11.56;47.95
26775;BME280;14362;51.902;7.626;2023-04-27T10:54:12;101440.88;;;11.56;48.50
26775;BME280;14362;51.902;7.626;2023-04-27T10:58:13;101437.13;;;11.60;50.46
26775;BME280;14362;51.902;7.626;2023-04-27T11:02:15;101431.00;;;11.72;49.70
26775;BME280;14362;51.902;7.626;2023-04-27T11:06:18;101420.28;;;12.09;47.24
26775;BME280;14362;51.902;7.626;2023-04-27T11:10:19;101414.50;;;12.06;45.50
26775;BME280;14362;51.902;7.626;2023-04-27T11:14:21;101408.22;;;12.22;44.25
26775;BME280;14362;51.902;7.626;2023-04-27T11:18:23;101415.59;;;12.40;45.67
26775;BME280;14362;51.902;7.626;2023-04-27T11:22:27;101412.72;;;12.31;48.29
26775;BME280;14362;51.902;7.626;2023-04-27T11:26:28;101412.84;;;12.26;46.91
26775;BME280;14362;51.902;7.626;2023-04-27T11:30:30;101412.69;;;12.53;47.10
26775;BME280;14362;51.902;7.626;2023-04-27T11:34:31;101412.34;;;12.24;46.76
26775;BME280;14362;51.902;7.626;2023-04-27T11:38:41;101415.94;;;12.47;44.79
26775;BME280;14362;51.902;7.626;2023-04-27T11:42:42;101416.34;;;12.32;45.17
26775;BME280;14362;51.902;7.626;2023-04-27T11:46:46;101407.69;;;12.42;47.83
26775;BME280;14362;51.902;7.626;2023-04-27T11:50:49;101413.09;;;12.69;45.85
26775;BME280;14362;51.902;7.626;2023-04-27T11:54:54;101413.63;;;12.49;46.80
26775;BME280;14362;51.902;7.626;2023-04-27T11:58:55;101407.97;;;12.62;46.51
26775;BME280;14362;51.902;7.626;2023-04-27T12:02:57;101404.19;;;12.67;45.63
26775;BME280;14362;51.902;7.626;2023-04-27T12:06:59;101409.44;;;12.60;45.58
26775;BME280;14362;51.902;7.626;2023-04-27T12:11:02;101409.00;;;12.75;46.68
26775;BME280;14362;51.902;7.626;2023-04-27T12:15:05;101410.06;;;12.87;46.41
26775;BME280;14362;51.902;7.626;2023-04-27T12:19:07;101401.28;;;12.80;47.22
26775;BME280;14362;51.902;7.626;2023-04-27T12:23:09;101393.00;;;12.97;47.13
26775;BME280;14362;51.902;7.626;2023-04-27T12:27:11;101388.44;;;13.18;48.99
26775;BME280;14362;51.902;7.626;2023-04-27T12:31:14;101382.34;;;13.25;48.74
26775;BME280;14362;51.902;7.626;2023-04-27T12:35:17;101381.59;;;13.49;51.11
26775;BME280;14362;51.902;7.626;2023-04-27T12:39:20;101373.34;;;13.61;45.39
26775;BME280;14362;51.902;7.626;2023-04-27T12:43:25;101384.72;;;13.99;43.30
26775;BME280;14362;51.902;7.626;2023-04-27T12:47:27;101384.38;;;13.75;42.83
26775;BME280;14362;51.902;7.626;2023-04-27T12:51:28;101387.97;;;13.41;43.38
26775;BME280;14362;51.902;7.626;2023-04-27T12:55:29;101373.19;;;13.41;47.58
26775;BME280;14362;51.902;7.626;2023-04-27T12:59:32;101368.38;;;13.33;45.38
26775;BME280;14362;51.902;7.626;2023-04-27T13:03:34;101366.56;;;13.79;45.06
26775;BME280;14362;51.902;7.626;2023-04-27T13:07:35;101373.34;;;13.78;44.01
26775;BME280;14362;51.902;7.626;2023-04-27T13:11:37;101372.38;;;13.74;45.24
26775;BME280;14362;51.902;7.626;2023-04-27T13:15:40;101367.91;;;13.99;44.75
26775;BME280;14362;51.902;7.626;2023-04-27T13:19:41;101361.94;;;14.00;46.06
26775;BME280;14362;51.902;7.626;2023-04-27T13:23:43;101368.41;;;14.01;43.17
26775;BME280;14362;51.902;7.626;2023-04-27T13:27:44;101361.63;;;14.10;41.04
26775;BME280;14362;51.902;7.626;2023-04-27T13:31:47;101358.66;;;13.98;45.07
26775;BME280;14362;51.902;7.626;2023-04-27T13:35:49;101361.28;;;14.20;41.37
26775;BME280;14362;51.902;7.626;2023-04-27T13:39:50;101351.06;;;13.99;43.07
26775;BME280;14362;51.902;7.626;2023-04-27T13:43:52;101342.69;;;13.82;43.47
26775;BME280;14362;51.902;7.626;2023-04-27T13:47:54;101339.56;;;13.75;44.58
26775;BME280;14362;51.902;7.626;2023-04-27T13:51:56;101340.69;;;13.91;43.51
26775;BME280;14362;51.902;7.626;2023-04-27T13:55:57;101335.56;;;14.01;42.58
26775;BME280;14362;51.902;7.626;2023-04-27T13:59:59;101329.94;;;14.18;40.94
26775;BME280;14362;51.902;7.626;2023-04-27T14:04:02;101331.75;;;14.31;41.01
26775;BME280;14362;51.902;7.626;2023-04-27T14:08:04;101334.75;;;14.09;42.62
26775;BME280;14362;51.902;7.626;2023-04-27T14:12:05;101341.66;;;14.20;41.97
26775;BME280;14362;51.902;7.626;2023-04-27T14:16:07;101320.59;;;14.51;46.91
26775;BME280;14362;51.902;7.626;2023-04-27T14:20:10;101324.09;;;14.40;41.89
26775;BME280;14362;51.902;7.626;2023-04-27T14:24:12;101326.81;;;14.20;40.62
26775;BME280;14362;51.902;7.626;2023-04-27T14:28:14;101315.91;;;14.10;40.42
26775;BME280;14362;51.902;7.626;2023-04-27T14:32:15;101316.94;;;13.97;41.89
26775;BME280;14362;51.902;7.626;2023-04-27T14:36:18;101304.72;;;14.01;43.38
26775;BME280;14362;51.902;7.626;2023-04-27T14:40:19;101310.16;;;14.23;40.15
26775;BME280;14362;51.902;7.626;2023-04-27T14:44:22;101296.50;;;14.05;42.50
26775;BME280;14362;51.902;7.626;2023-04-27T14:48:24;101306.06;;;14.04;40.61
26775;BME280;14362;51.902;7.626;2023-04-27T14:52:27;101304.06;;;14.04;40.32
26775;BME280;14362;51.902;7.626;2023-04-27T14:56:29;101295.03;;;13.99;41.73
26775;BME280;14362;51.902;7.626;2023-04-27T15:00:30;101296.97;;;14.07;42.13
26775;BME280;14362;51.902;7.626;2023-04-27T15:04:32;101301.09;;;14.09;42.01
26775;BME280;14362;51.902;7.626;2023-04-27T15:08:36;101293.19;;;14.03;44.69
26775;BME280;14362;51.902;7.626;2023-04-27T15:12:37;101299.41;;;14.25;42.62
26775;BME280;14362;51.902;7.626;2023-04-27T15:16:39;101287.88;;;14.18;43.08
26775;BME280;14362;51.902;7.626;2023-04-27T15:20:40;101281.97;;;14.20;44.26
26775;BME280;14362;51.902;7.626;2023-04-27T15:24:43;101283.75;;;14.24;41.92
26775;BME280;14362;51.902;7.626;2023-04-27T15:28:44;101272.91;;;13.97;42.68
26775;BME280;14362;51.902;7.626;2023-04-27T15:32:46;101267.19;;;13.85;44.24
26775;BME280;14362;51.902;7.626;2023-04-27T15:36:48;101258.59;;;13.90;43.73
26775;BME280;14362;51.902;7.626;2023-04-27T15:40:51;101259.75;;;13.98;44.75
26775;BME280;14362;51.902;7.626;2023-04-27T15:44:53;101260.28;;;13.83;45.45
26775;BME280;14362;51.902;7.626;2023-04-27T15:48:54;101263.41;;;13.73;44.74
26775;BME280;14362;51.902;7.626;2023-04-27T15:52:56;101267.19;;;13.77;43.78
26775;BME280;14362;51.902;7.626;2023-04-27T15:56:59;101258.16;;;13.71;44.94
26775;BME280;14362;51.902;7.626;2023-04-27T16:01:01;101259.47;;;13.65;43.52
26775;BME280;14362;51.902;7.626;2023-04-27T16:05:04;101254.72;;;13.66;42.65
26775;BME280;14362;51.902;7.626;2023-04-27T16:09:06;101244.84;;;13.51;42.48
26775;BME280;14362;51.902;7.626;2023-04-27T16:13:10;101233.63;;;13.60;43.08
26775;BME280;14362;51.902;7.626;2023-04-27T16:17:11;101234.41;;;13.77;42.93
26775;BME280;14362;51.902;7.626;2023-04-27T16:21:13;101225.88;;;13.65;41.68
26775;BME280;14362;51.902;7.626;2023-04-27T16:25:14;101229.31;;;13.62;43.95
26775;BME280;14362;51.902;7.626;2023-04-27T16:29:17;101229.47;;;13.74;42.64
26775;BME280;14362;51.902;7.626;2023-04-27T16:33:18;101220.59;;;13.72;42.85
26775;BME280;14362;51.902;7.626;2023-04-27T16:37:20;101218.75;;;13.76;42.25
26775;BME280;14362;51.902;7.626;2023-04-27T16:41:21;101208.38;;;13.77;43.21
26775;BME280;14362;51.902;7.626;2023-04-27T16:45:24;101213.63;;;13.87;41.69
26775;BME280;14362;51.902;7.626;2023-04-27T16:49:26;101206.59;;;13.64;42.78
26775;BME280;14362;51.902;7.626;2023-04-27T16:53:27;101191.59;;;13.68;42.56
26775;BME280;14362;51.902;7.626;2023-04-27T16:57:29;101195.22;;;13.52;43.06
26775;BME280;14362;51.902;7.626;2023-04-27T17:01:32;101187.84;;;13.39;42.72
26775;BME280;14362;51.902;7.626;2023-04-27T17:05:33;101185.56;;;13.32;42.73
26775;BME280;14362;51.902;7.626;2023-04-27T17:09:35;101182.59;;;13.12;42.54
26775;BME280;14362;51.902;7.626;2023-04-27T17:13:36;101195.28;;;13.18;43.98
26775;BME280;14362;51.902;7.626;2023-04-27T17:17:39;101186.59;;;13.20;44.04
26775;BME280;14362;51.902;7.626;2023-04-27T17:21:41;101183.78;;;13.11;44.83
26775;BME280;14362;51.902;7.626;2023-04-27T17:25:44;101186.75;;;13.06;44.91
26775;BME280;14362;51.902;7.626;2023-04-27T17:29:46;101180.31;;;13.06;45.33
26775;BME280;14362;51.902;7.626;2023-04-27T17:33:49;101183.94;;;13.06;44.75
26775;BME280;14362;51.902;7.626;2023-04-27T17:37:51;101180.81;;;12.91;45.31
26775;BME280;14362;51.902;7.626;2023-04-27T17:41:52;101177.19;;;12.82;46.65
26775;BME280;14362;51.902;7.626;2023-04-27T17:45:54;101177.84;;;12.79;45.70
26775;BME280;14362;51.902;7.626;2023-04-27T17:49:57;101175.53;;;12.64;46.03
26775;BME280;14362;51.902;7.626;2023-04-27T17:53:58;101163.97;;;12.57;46.21
26775;BME280;14362;51.902;7.626;2023-04-27T17:58:00;101162.50;;;12.51;47.10
26775;BME280;14362;51.902;7.626;2023-04-27T18:02:03;101149.16;;;12.39;47.13
26775;BME280;14362;51.902;7.626;2023-04-27T18:06:06;101151.75;;;12.27;47.26
26775;BME280;14362;51.902;7.626;2023-04-27T18:10:08;101142.53;;;12.19;48.84
26775;BME280;14362;51.902;7.626;2023-04-27T18:14:09;101139.28;;;12.25;47.91
26775;BME280;14362;51.902;7.626;2023-04-27T18:18:11;101134.13;;;12.10;47.96
26775;BME280;14362;51.902;7.626;2023-04-27T18:22:17;101126.84;;;12.01;49.81
26775;BME280;14362;51.902;7.626;2023-04-27T18:26:19;101133.13;;;11.98;49.74
26775;BME280;14362;51.902;7.626;2023-04-27T18:30:21;101139.50;;;11.90;49.70
26775;BME280;14362;51.902;7.626;2023-04-27T18:34:23;101135.84;;;11.89;50.15
26775;BME280;14362;51.902;7.626;2023-04-27T18:38:26;101140.13;;;11.87;50.13
26775;BME280;14362;51.902;7.626;2023-04-27T18:42:28;101145.31;;;11.71;51.11
26775;BME280;14362;51.902;7.626;2023-04-27T18:46:29;101140.69;;;11.67;51.86
26775;BME280;14362;51.902;7.626;2023-04-27T18:50:31;101130.63;;;11.57;54.32
26775;BME280;14362;51.902;7.626;2023-04-27T18:54:33;101145.78;;;11.43;55.92
26775;BME280;14362;51.902;7.626;2023-04-27T18:58:35;101142.13;;;11.56;54.00
26775;BME280;14362;51.902;7.626;2023-04-27T19:02:37;101146.59;;;11.35;55.23
26775;BME280;14362;51.902;7.626;2023-04-27T19:06:38;101132.69;;;11.43;54.31
26775;BME280;14362;51.902;7.626;2023-04-27T19:10:41;101135.38;;;11.26;55.98
26775;BME280;14362;51.902;7.626;2023-04-27T19:14:42;101143.81;;;11.35;55.68
26775;BME280;14362;51.902;7.626;2023-04-27T19:18:44;101151.09;;;11.22;56.12
26775;BME280;14362;51.902;7.626;2023-04-27T19:22:45;101144.88;;;11.25;55.45
26775;BME280;14362;51.902;7.626;2023-04-27T19:26:48;101136.72;;;11.07;57.57
26775;BME280;14362;51.902;7.626;2023-04-27T19:30:50;101142.63;;;11.06;56.58
26775;BME280;14362;51.902;7.626;2023-04-27T19:34:52;101129.44;;;10.98;57.93
26775;BME280;14362;51.902;7.626;2023-04-27T19:38:54;101131.13;;;10.85;58.84
26775;BME280;14362;51.902;7.626;2023-04-27T19:42:57;101128.34;;;10.85;59.01
26775;BME280;14362;51.902;7.626;2023-04-27T19:46:58;101137.38;;;10.82;59.08
26775;BME280;14362;51.902;7.626;2023-04-27T19:50:59;101127.22;;;10.86;57.76
26775;BME280;14362;51.902;7.626;2023-04-27T19:55:01;101130.59;;;10.75;59.15
26775;BME280;14362;51.902;7.626;2023-04-27T19:59:04;101119.69;;;10.87;57.74
26775;BME280;14362;51.902;7.626;2023-04-27T20:03:06;101119.44;;;10.75;57.51
26775;BME280;14362;51.902;7.626;2023-04-27T20:07:07;101122.44;;;10.65;59.55
26775;BME280;14362;51.902;7.626;2023-04-27T20:11:09;101111.81;;;10.67;56.98
26775;BME280;14362;51.902;7.626;2023-04-27T20:15:12;101107.50;;;10.61;57.76
26775;BME280;14362;51.902;7.626;2023-04-27T20:19:13;101104.59;;;10.66;55.94
26775;BME280;14362;51.902;7.626;2023-04-27T20:23:16;101105.16;;;10.54;57.29
26775;BME280;14362;51.902;7.626;2023-04-27T20:27:18;101098.69;;;10.45;57.34
26775;BME280;14362;51.902;7.626;2023-04-27T20:31:21;101089.59;;;10.40;58.19
26775;BME280;14362;51.902;7.626;2023-04-27T20:35:22;101084.03;;;10.40;57.74
26775;BME280;14362;51.902;7.626;2023-04-27T20:39:24;101083.41;;;10.43;57.30
26775;BME280;14362;51.902;7.626;2023-04-27T20:43:25;101088.47;;;10.41;57.92
26775;BME280;14362;51.902;7.626;2023-04-27T20:47:28;101085.44;;;10.51;55.63
26775;BME280;14362;51.902;7.626;2023-04-27T20:51:30;101087.03;;;10.43;56.11
26775;BME280;14362;51.902;7.626;2023-04-27T20:55:32;101090.75;;;10.39;58.10
26775;BME280;14362;51.902;7.626;2023-04-27T20:59:33;101083.25;;;10.26;59.05
26775;BME280;14362;51.902;7.626;2023-04-27T21:03:36;101078.44;;;10.18;58.03
26775;BME280;14362;51.902;7.626;2023-04-27T21:07:37;101072.78;;;10.10;61.10